sensor_id;sensor_type;location;lat;lon;timestamp;pressure;altitude;pressure_sealevel;temperature;humidity
64668;BME280;51077;42.716;23.344;2023-03-07T00:00:42;94588.56;;;10.78;43.01
64668;BME280;51077;42.716;23.344;2023-03-07T00:03:11;94598.09;;;10.77;42.90
64668;BME280;51077;42.716;23.344;2023-03-07T00:05:36;94583.63;;;10.77;42.97
64668;BME280;51077;42.716;23.344;2023-03-07T00:08:02;94578.44;;;10.73;43.15
64668;BME280;51077;42.716;23.344;2023-03-07T00:10:27;94576.00;;;10.70;43.29
64668;BME280;51077;42.716;23.344;2023-03-07T00:12:53;94583.50;;;10.69;43.15
64668;BME280;51077;42.716;23.344;2023-03-07T00:15:19;94572.34;;;10.67;43.36
64668;BME280;51077;42.716;23.344;2023-03-07T00:17:45;94584.06;;;10.68;43.31
64668;BME280;51077;42.716;23.344;2023-03-07T00:20:10;94568.09;;;10.66;43.36
64668;BME280;51077;42.716;23.344;2023-03-07T00:22:38;94555.13;;;10.67;43.41
64668;BME280;51077;42.716;23.344;2023-03-07T00:25:04;94561.38;;;10.67;43.63
64668;BME280;51077;42.716;23.344;2023-03-07T00:27:30;94557.13;;;10.66;43.50
64668;BME280;51077;42.716;23.344;2023-03-07T00:29:56;94565.78;;;10.70;43.59
64668;BME280;51077;42.716;23.344;2023-03-07T00:32:22;94549.84;;;10.69;43.71
64668;BME280;51077;42.716;23.344;2023-03-07T00:34:48;94558.28;;;10.71;43.45
64668;BME280;51077;42.716;23.344;2023-03-07T00:37:13;94558.81;;;10.69;43.54
64668;BME280;51077;42.716;23.344;2023-03-07T00:39:40;94569.47;;;10.73;43.78
64668;BME280;51077;42.716;23.344;2023-03-07T00:42:05;94571.50;;;10.72;43.71
64668;BME280;51077;42.716;23.344;2023-03-07T00:44:31;94567.47;;;10.73;43.69
64668;BME280;51077;42.716;23.344;2023-03-07T00:46:57;94566.00;;;10.72;43.94
64668;BME280;51077;42.716;23.344;2023-03-07T00:49:22;94550.59;;;10.69;44.08
64668;BME280;51077;42.716;23.344;2023-03-07T00:51:48;94553.88;;;10.68;44.05
64668;BME280;51077;42.716;23.344;2023-03-07T00:54:13;94555.34;;;10.69;44.23
64668;BME280;51077;42.716;23.344;2023-03-07T00:56:39;94552.41;;;10.67;44.33
64668;BME280;51077;42.716;23.344;2023-03-07T00:59:05;94555.13;;;10.67;44.17
64668;BME280;51077;42.716;23.344;2023-03-07T01:01:30;94545.41;;;10.66;44.35
64668;BME280;51077;42.716;23.344;2023-03-07T01:03:56;94534.97;;;10.64;44.26
64668;BME280;51077;42.716;23.344;2023-03-07T01:06:24;94556.94;;;10.64;44.38
64668;BME280;51077;42.716;23.344;2023-03-07T01:08:50;94541.72;;;10.63;44.27
64668;BME280;51077;42.716;23.344;2023-03-07T01:11:15;94547.22;;;10.63;44.41
64668;BME280;51077;42.716;23.344;2023-03-07T01:13:41;94546.25;;;10.61;44.23
64668;BME280;51077;42.716;23.344;2023-03-07T01:18:32;94539.31;;;10.60;44.47
64668;BME280;51077;42.716;23.344;2023-03-07T01:20:57;94533.81;;;10.60;44.53
64668;BME280;51077;42.716;23.344;2023-03-07T01:23:23;94523.38;;;10.58;44.52
64668;BME280;51077;42.716;23.344;2023-03-07T01:25:48;94515.66;;;10.56;44.69
64668;BME280;51077;42.716;23.344;2023-03-07T01:28:14;94508.69;;;10.55;44.50
64668;BME280;51077;42.716;23.344;2023-03-07T01:30:39;94506.69;;;10.56;44.67
64668;BME280;51077;42.716;23.344;2023-03-07T01:33:05;94508.16;;;10.57;44.77
64668;BME280;51077;42.716;23.344;2023-03-07T01:35:36;94516.41;;;10.57;44.68
64668;BME280;51077;42.716;23.344;2023-03-07T01:38:01;94512.91;;;10.56;44.74
64668;BME280;51077;42.716;23.344;2023-03-07T01:40:27;94507.44;;;10.56;44.76
64668;BME280;51077;42.716;23.344;2023-03-07T01:42:53;94506.69;;;10.56;44.66
64668;BME280;51077;42.716;23.344;2023-03-07T01:48:09;94512.19;;;10.56;44.81
64668;BME280;51077;42.716;23.344;2023-03-07T01:50:35;94508.16;;;10.57;45.09
64668;BME280;51077;42.716;23.344;2023-03-07T01:53:00;94521.88;;;10.57;44.90
64668;BME280;51077;42.716;23.344;2023-03-07T01:55:29;94517.66;;;10.56;45.04
64668;BME280;51077;42.716;23.344;2023-03-07T01:57:57;94525.16;;;10.55;45.06
64668;BME280;51077;42.716;23.344;2023-03-07T02:00:27;94515.47;;;10.54;45.03
64668;BME280;51077;42.716;23.344;2023-03-07T02:03:14;94512.91;;;10.56;45.19
64668;BME280;51077;42.716;23.344;2023-03-07T02:05:47;94511.44;;;10.55;45.16
64668;BME280;51077;42.716;23.344;2023-03-07T02:08:15;94514.19;;;10.55;45.12
64668;BME280;51077;42.716;23.344;2023-03-07T02:10:41;94506.28;;;10.52;45.20
64668;BME280;51077;42.716;23.344;2023-03-07T02:13:07;94511.03;;;10.51;45.14
64668;BME280;51077;42.716;23.344;2023-03-07T02:15:34;94491.81;;;10.51;45.16
64668;BME280;51077;42.716;23.344;2023-03-07T02:18:00;94495.09;;;10.50;45.21
64668;BME280;51077;42.716;23.344;2023-03-07T02:22:55;94496.56;;;10.51;44.88
64668;BME280;51077;42.716;23.344;2023-03-07T02:25:31;94512.50;;;10.52;44.97
64668;BME280;51077;42.716;23.344;2023-03-07T02:28:00;94500.78;;;10.52;45.19
64668;BME280;51077;42.716;23.344;2023-03-07T02:30:28;94500.78;;;10.52;45.12
64668;BME280;51077;42.716;23.344;2023-03-07T02:32:54;94490.56;;;10.52;45.04
64668;BME280;51077;42.716;23.344;2023-03-07T02:35:22;94502.25;;;10.53;44.93
64668;BME280;51077;42.716;23.344;2023-03-07T02:37:56;94508.28;;;10.51;45.31
64668;BME280;51077;42.716;23.344;2023-03-07T02:40:26;94504.59;;;10.49;45.22
64668;BME280;51077;42.716;23.344;2023-03-07T02:42:54;94515.56;;;10.49;45.25
64668;BME280;51077;42.716;23.344;2023-03-07T02:45:21;94507.31;;;10.49;45.35
64668;BME280;51077;42.716;23.344;2023-03-07T02:47:46;94501.84;;;10.49;45.26
64668;BME280;51077;42.716;23.344;2023-03-07T02:50:13;94487.38;;;10.48;45.31
64668;BME280;51077;42.716;23.344;2023-03-07T02:52:39;94505.13;;;10.47;45.39
64668;BME280;51077;42.716;23.344;2023-03-07T02:55:06;94498.16;;;10.46;45.35
64668;BME280;51077;42.716;23.344;2023-03-07T02:57:32;94502.19;;;10.45;45.53
64668;BME280;51077;42.716;23.344;2023-03-07T02:59:57;94504.94;;;10.45;45.25
64668;BME280;51077;42.716;23.344;2023-03-07T03:02:24;94495.41;;;10.46;45.47
64668;BME280;51077;42.716;23.344;2023-03-07T03:04:49;94502.38;;;10.47;45.47
64668;BME280;51077;42.716;23.344;2023-03-07T03:07:15;94502.38;;;10.47;45.34
64668;BME280;51077;42.716;23.344;2023-03-07T03:09:40;94509.16;;;10.46;45.47
64668;BME280;51077;42.716;23.344;2023-03-07T03:12:06;94506.41;;;10.46;45.44
64668;BME280;51077;42.716;23.344;2023-03-07T03:14:31;94502.19;;;10.45;45.39
64668;BME280;51077;42.716;23.344;2023-03-07T03:16:57;94506.94;;;10.45;45.63
64668;BME280;51077;42.716;23.344;2023-03-07T03:19:22;94510.41;;;10.45;45.40
64668;BME280;51077;42.716;23.344;2023-03-07T03:21:47;94501.44;;;10.45;45.40
64668;BME280;51077;42.716;23.344;2023-03-07T03:24:13;94496.69;;;10.45;45.49
64668;BME280;51077;42.716;23.344;2023-03-07T03:26:38;94489.72;;;10.44;45.56
64668;BME280;51077;42.716;23.344;2023-03-07T03:29:04;94506.72;;;10.43;45.55
64668;BME280;51077;42.716;23.344;2023-03-07T03:31:30;94499.03;;;10.41;45.46
64668;BME280;51077;42.716;23.344;2023-03-07T03:33:57;94494.28;;;10.42;45.50
64668;BME280;51077;42.716;23.344;2023-03-07T03:36:24;94496.28;;;10.41;45.67
64668;BME280;51077;42.716;23.344;2023-03-07T03:38:54;94509.47;;;10.43;45.55
64668;BME280;51077;42.716;23.344;2023-03-07T03:41:20;94512.75;;;10.41;45.46
64668;BME280;51077;42.716;23.344;2023-03-07T03:43:46;94498.28;;;10.41;45.52
64668;BME280;51077;42.716;23.344;2023-03-07T03:46:12;94502.28;;;10.40;45.38
64668;BME280;51077;42.716;23.344;2023-03-07T03:48:38;94508.50;;;10.40;45.67
64668;BME280;51077;42.716;23.344;2023-03-07T03:51:07;94511.03;;;10.38;45.66
64668;BME280;51077;42.716;23.344;2023-03-07T03:53:35;94516.53;;;10.38;45.84
64668;BME280;51077;42.716;23.344;2023-03-07T03:56:12;94511.78;;;10.39;45.91
64668;BME280;51077;42.716;23.344;2023-03-07T03:58:39;94513.06;;;10.38;45.72
64668;BME280;51077;42.716;23.344;2023-03-07T04:01:06;94504.28;;;10.39;45.74
64668;BME280;51077;42.716;23.344;2023-03-07T04:03:33;94511.03;;;10.38;45.79
64668;BME280;51077;42.716;23.344;2023-03-07T04:06:00;94504.28;;;10.39;45.89
64668;BME280;51077;42.716;23.344;2023-03-07T04:08:26;94508.50;;;10.40;45.61
64668;BME280;51077;42.716;23.344;2023-03-07T04:10:51;94504.50;;;10.41;45.77
64668;BME280;51077;42.716;23.344;2023-03-07T04:13:17;94515.47;;;10.41;45.69
64668;BME280;51077;42.716;23.344;2023-03-07T04:15:42;94526.44;;;10.41;45.80
64668;BME280;51077;42.716;23.344;2023-03-07T04:18:08;94520.22;;;10.41;45.75
64668;BME280;51077;42.716;23.344;2023-03-07T04:20:33;94519.47;;;10.40;45.90
64668;BME280;51077;42.716;23.344;2023-03-07T04:22:58;94514.75;;;10.41;45.61
64668;BME280;51077;42.716;23.344;2023-03-07T04:25:24;94517.69;;;10.43;45.66
64668;BME280;51077;42.716;23.344;2023-03-07T04:27:49;94531.41;;;10.43;45.85
64668;BME280;51077;42.716;23.344;2023-03-07T04:30:15;94525.91;;;10.43;45.84
64668;BME280;51077;42.716;23.344;2023-03-07T04:32:40;94531.94;;;10.41;45.80
64668;BME280;51077;42.716;23.344;2023-03-07T04:35:06;94534.69;;;10.41;45.77
64668;BME280;51077;42.716;23.344;2023-03-07T04:37:32;94538.91;;;10.42;45.72
64668;BME280;51077;42.716;23.344;2023-03-07T04:39:57;94540.69;;;10.40;45.71
64668;BME280;51077;42.716;23.344;2023-03-07T04:42:23;94532.25;;;10.38;45.83
64668;BME280;51077;42.716;23.344;2023-03-07T04:44:48;94535.53;;;10.36;45.88
64668;BME280;51077;42.716;23.344;2023-03-07T04:47:13;94539.53;;;10.35;45.92
64668;BME280;51077;42.716;23.344;2023-03-07T04:49:39;94544.50;;;10.37;46.28
64668;BME280;51077;42.716;23.344;2023-03-07T04:52:04;94548.81;;;10.59;61.75
64668;BME280;51077;42.716;23.344;2023-03-07T04:54:30;94544.34;;;10.82;62.91
64668;BME280;51077;42.716;23.344;2023-03-07T04:56:55;94540.22;;;10.89;61.23
64668;BME280;51077;42.716;23.344;2023-03-07T04:59:21;94544.94;;;10.88;60.39
64668;BME280;51077;42.716;23.344;2023-03-07T05:01:47;94537.56;;;10.83;59.31
64668;BME280;51077;42.716;23.344;2023-03-07T05:04:12;94544.66;;;10.78;58.37
64668;BME280;51077;42.716;23.344;2023-03-07T05:06:37;94545.72;;;10.75;57.76
64668;BME280;51077;42.716;23.344;2023-03-07T05:09:03;94545.50;;;10.73;57.55
64668;BME280;51077;42.716;23.344;2023-03-07T05:11:28;94539.28;;;10.73;57.00
64668;BME280;51077;42.716;23.344;2023-03-07T05:13:54;94539.06;;;10.71;56.64
64668;BME280;51077;42.716;23.344;2023-03-07T05:16:20;94536.31;;;10.71;55.85
64668;BME280;51077;42.716;23.344;2023-03-07T05:18:46;94539.06;;;10.71;55.16
64668;BME280;51077;42.716;23.344;2023-03-07T05:21:11;94547.09;;;10.69;54.56
64668;BME280;51077;42.716;23.344;2023-03-07T05:23:37;94544.91;;;10.67;54.01
64668;BME280;51077;42.716;23.344;2023-03-07T05:26:02;94548.38;;;10.68;53.63
64668;BME280;51077;42.716;23.344;2023-03-07T05:28:27;94552.59;;;10.69;53.56
64668;BME280;51077;42.716;23.344;2023-03-07T05:30:53;94556.06;;;10.69;53.35
64668;BME280;51077;42.716;23.344;2023-03-07T05:33:18;94551.84;;;10.68;52.86
64668;BME280;51077;42.716;23.344;2023-03-07T05:35:44;94554.06;;;10.70;52.57
64668;BME280;51077;42.716;23.344;2023-03-07T05:38:09;94552.78;;;10.71;52.19
64668;BME280;51077;42.716;23.344;2023-03-07T05:40:35;94563.75;;;10.71;52.19
64668;BME280;51077;42.716;23.344;2023-03-07T05:43:01;94566.00;;;10.72;51.79
64668;BME280;51077;42.716;23.344;2023-03-07T05:45:26;94561.97;;;10.73;51.50
64668;BME280;51077;42.716;23.344;2023-03-07T05:47:51;94561.25;;;10.73;51.34
64668;BME280;51077;42.716;23.344;2023-03-07T05:50:17;94566.72;;;10.73;50.92
64668;BME280;51077;42.716;23.344;2023-03-07T05:52:44;94578.44;;;10.73;50.75
64668;BME280;51077;42.716;23.344;2023-03-07T05:55:10;94573.19;;;10.75;50.61
64668;BME280;51077;42.716;23.344;2023-03-07T05:57:35;94566.94;;;10.75;50.22
64668;BME280;51077;42.716;23.344;2023-03-07T06:00:00;94571.38;;;10.78;50.24
64668;BME280;51077;42.716;23.344;2023-03-07T06:02:26;94571.38;;;10.78;50.13
64668;BME280;51077;42.716;23.344;2023-03-07T06:04:51;94576.31;;;10.79;49.90
64668;BME280;51077;42.716;23.344;2023-03-07T06:07:17;94575.81;;;10.81;49.75
64668;BME280;51077;42.716;23.344;2023-03-07T06:09:42;94572.00;;;10.84;49.59
64668;BME280;51077;42.716;23.344;2023-03-07T06:12:09;94570.94;;;10.87;49.49
64668;BME280;51077;42.716;23.344;2023-03-07T06:14:34;94580.13;;;10.90;49.32
64668;BME280;51077;42.716;23.344;2023-03-07T06:17:00;94570.28;;;10.94;49.16
64668;BME280;51077;42.716;23.344;2023-03-07T06:19:26;94567.28;;;11.05;48.99
64668;BME280;51077;42.716;23.344;2023-03-07T06:21:52;94572.66;;;11.24;48.70
64668;BME280;51077;42.716;23.344;2023-03-07T06:24:17;94581.84;;;11.48;48.22
64668;BME280;51077;42.716;23.344;2023-03-07T06:26:42;94582.03;;;11.63;47.87
64668;BME280;51077;42.716;23.344;2023-03-07T06:29:08;94581.97;;;11.76;47.55
64668;BME280;51077;42.716;23.344;2023-03-07T06:31:33;94579.56;;;11.94;47.22
64668;BME280;51077;42.716;23.344;2023-03-07T06:33:59;94580.97;;;12.08;46.86
64668;BME280;51077;42.716;23.344;2023-03-07T06:36:24;94580.69;;;12.19;46.56
64668;BME280;51077;42.716;23.344;2023-03-07T06:38:50;94580.59;;;12.32;46.36
64668;BME280;51077;42.716;23.344;2023-03-07T06:41:15;94576.66;;;12.49;46.07
64668;BME280;51077;42.716;23.344;2023-03-07T06:43:40;94587.25;;;12.73;45.89
64668;BME280;51077;42.716;23.344;2023-03-07T06:46:06;94591.81;;;12.99;45.24
64668;BME280;51077;42.716;23.344;2023-03-07T06:48:31;94592.41;;;13.13;44.90
64668;BME280;51077;42.716;23.344;2023-03-07T06:50:59;94591.38;;;13.24;44.65
64668;BME280;51077;42.716;23.344;2023-03-07T06:53:24;94587.91;;;13.31;44.59
64668;BME280;51077;42.716;23.344;2023-03-07T06:55:51;94597.50;;;13.38;44.25
64668;BME280;51077;42.716;23.344;2023-03-07T06:58:16;94590.13;;;13.40;44.31
64668;BME280;51077;42.716;23.344;2023-03-07T07:00:42;94605.59;;;13.43;44.08
64668;BME280;51077;42.716;23.344;2023-03-07T07:03:12;94600.44;;;13.47;44.02
64668;BME280;51077;42.716;23.344;2023-03-07T07:05:38;94595.00;;;13.63;43.74
64668;BME280;51077;42.716;23.344;2023-03-07T07:08:04;94593.53;;;13.77;43.40
64668;BME280;51077;42.716;23.344;2023-03-07T07:10:29;94595.56;;;13.99;43.04
64668;BME280;51077;42.716;23.344;2023-03-07T07:12:54;94592.09;;;14.29;42.88
64668;BME280;51077;42.716;23.344;2023-03-07T07:15:22;94595.22;;;14.64;42.01
64668;BME280;51077;42.716;23.344;2023-03-07T07:17:47;94593.47;;;14.99;41.62
64668;BME280;51077;42.716;23.344;2023-03-07T07:20:14;94595.16;;;15.35;40.96
64668;BME280;51077;42.716;23.344;2023-03-07T07:22:39;94605.16;;;15.71;40.73
64668;BME280;51077;42.716;23.344;2023-03-07T07:25:05;94593.00;;;15.99;40.17
64668;BME280;51077;42.716;23.344;2023-03-07T07:27:30;94593.41;;;16.20;39.57
64668;BME280;51077;42.716;23.344;2023-03-07T07:29:56;94593.59;;;16.40;39.19
64668;BME280;51077;42.716;23.344;2023-03-07T07:32:21;94601.69;;;16.63;38.67
64668;BME280;51077;42.716;23.344;2023-03-07T07:34:46;94595.13;;;16.75;38.40
64668;BME280;51077;42.716;23.344;2023-03-07T07:37:12;94602.81;;;17.02;38.00
64668;BME280;51077;42.716;23.344;2023-03-07T07:39:37;94593.50;;;17.24;37.88
64668;BME280;51077;42.716;23.344;2023-03-07T07:42:05;94601.63;;;17.40;37.69
64668;BME280;51077;42.716;23.344;2023-03-07T07:44:31;94599.09;;;17.51;37.17
64668;BME280;51077;42.716;23.344;2023-03-07T07:46:56;94601.94;;;17.61;36.91
64668;BME280;51077;42.716;23.344;2023-03-07T07:49:22;94604.13;;;17.63;36.63
64668;BME280;51077;42.716;23.344;2023-03-07T07:51:47;94609.94;;;17.57;36.58
64668;BME280;51077;42.716;23.344;2023-03-07T07:54:13;94605.06;;;17.48;36.79
64668;BME280;51077;42.716;23.344;2023-03-07T07:56:38;94604.66;;;17.34;37.04
64668;BME280;51077;42.716;23.344;2023-03-07T07:59:04;94600.94;;;17.22;36.98
64668;BME280;51077;42.716;23.344;2023-03-07T08:01:29;94605.34;;;17.07;37.06
64668;BME280;51077;42.716;23.344;2023-03-07T08:03:55;94608.44;;;16.94;37.38
64668;BME280;51077;42.716;23.344;2023-03-07T08:06:23;94604.84;;;16.84;37.60
64668;BME280;51077;42.716;23.344;2023-03-07T08:08:49;94607.84;;;16.78;37.66
64668;BME280;51077;42.716;23.344;2023-03-07T08:11:16;94612.34;;;16.74;37.84
64668;BME280;51077;42.716;23.344;2023-03-07T08:13:41;94617.69;;;16.72;37.80
64668;BME280;51077;42.716;23.344;2023-03-07T08:16:11;94614.00;;;16.69;37.69
64668;BME280;51077;42.716;23.344;2023-03-07T08:18:39;94615.69;;;16.72;38.01
64668;BME280;51077;42.716;23.344;2023-03-07T08:21:05;94607.13;;;16.78;37.70
64668;BME280;51077;42.716;23.344;2023-03-07T08:23:30;94610.31;;;16.92;37.66
64668;BME280;51077;42.716;23.344;2023-03-07T08:26:01;94610.31;;;17.09;37.18
64668;BME280;51077;42.716;23.344;2023-03-07T08:28:26;94606.38;;;17.29;37.05
64668;BME280;51077;42.716;23.344;2023-03-07T08:30:52;94602.97;;;17.66;36.80
64668;BME280;51077;42.716;23.344;2023-03-07T08:33:17;94608.69;;;17.85;36.67
64668;BME280;51077;42.716;23.344;2023-03-07T08:35:43;94605.84;;;18.02;36.07
64668;BME280;51077;42.716;23.344;2023-03-07T08:38:08;94604.13;;;18.17;35.89
64668;BME280;51077;42.716;23.344;2023-03-07T08:40:33;94602.28;;;18.29;35.63
64668;BME280;51077;42.716;23.344;2023-03-07T08:42:59;94602.88;;;18.37;35.54
64668;BME280;51077;42.716;23.344;2023-03-07T08:45:24;94607.59;;;18.44;35.38
64668;BME280;51077;42.716;23.344;2023-03-07T08:47:54;94605.41;;;18.52;35.29
64668;BME280;51077;42.716;23.344;2023-03-07T08:50:22;94606.63;;;18.59;35.05
64668;BME280;51077;42.716;23.344;2023-03-07T08:52:47;94605.91;;;18.68;34.96
64668;BME280;51077;42.716;23.344;2023-03-07T08:55:13;94602.72;;;18.81;34.71
64668;BME280;51077;42.716;23.344;2023-03-07T08:57:39;94599.50;;;19.24;34.15
64668;BME280;51077;42.716;23.344;2023-03-07T09:00:05;94598.63;;;19.70;33.97
64668;BME280;51077;42.716;23.344;2023-03-07T09:02:33;94600.22;;;20.23;33.36
64668;BME280;51077;42.716;23.344;2023-03-07T09:04:58;94596.28;;;20.79;32.65
64668;BME280;51077;42.716;23.344;2023-03-07T09:07:24;94590.28;;;21.37;32.11
64668;BME280;51077;42.716;23.344;2023-03-07T09:09:49;94590.00;;;21.99;31.37
64668;BME280;51077;42.716;23.344;2023-03-07T09:12:14;94592.22;;;22.60;30.99
64668;BME280;51077;42.716;23.344;2023-03-07T09:14:40;94584.94;;;23.15;30.22
64668;BME280;51077;42.716;23.344;2023-03-07T09:17:05;94589.41;;;23.69;29.45
64668;BME280;51077;42.716;23.344;2023-03-07T09:19:31;94587.84;;;24.19;29.13
64668;BME280;51077;42.716;23.344;2023-03-07T09:21:56;94594.56;;;24.67;28.43
64668;BME280;51077;42.716;23.344;2023-03-07T09:24:21;94589.19;;;25.13;27.72
64668;BME280;51077;42.716;23.344;2023-03-07T09:26:47;94585.97;;;25.48;27.05
64668;BME280;51077;42.716;23.344;2023-03-07T09:29:12;94583.44;;;25.84;26.69
64668;BME280;51077;42.716;23.344;2023-03-07T09:31:37;94577.25;;;26.17;26.45
64668;BME280;51077;42.716;23.344;2023-03-07T09:34:05;94571.09;;;26.52;25.89
64668;BME280;51077;42.716;23.344;2023-03-07T09:36:30;94570.38;;;26.85;25.58
64668;BME280;51077;42.716;23.344;2023-03-07T09:38:55;94571.78;;;27.18;25.18
64668;BME280;51077;42.716;23.344;2023-03-07T09:49:52;94565.63;;;28.50;23.82
64668;BME280;51077;42.716;23.344;2023-03-07T09:52:23;94558.91;;;28.79;23.71
64668;BME280;51077;42.716;23.344;2023-03-07T09:54:56;94551.94;;;29.02;23.21
64668;BME280;51077;42.716;23.344;2023-03-07T09:57:28;94549.28;;;29.28;23.00
64668;BME280;51077;42.716;23.344;2023-03-07T10:00:10;94545.59;;;29.46;22.38
64668;BME280;51077;42.716;23.344;2023-03-07T10:08:49;94535.53;;;30.09;21.78
64668;BME280;51077;42.716;23.344;2023-03-07T10:11:15;94519.25;;;30.33;21.61
64668;BME280;51077;42.716;23.344;2023-03-07T10:13:58;94519.16;;;30.55;20.91
64668;BME280;51077;42.716;23.344;2023-03-07T10:27:16;94491.25;;;31.56;19.29
64668;BME280;51077;42.716;23.344;2023-03-07T10:32:20;94503.09;;;31.78;18.94
64668;BME280;51077;42.716;23.344;2023-03-07T10:34:52;94495.03;;;31.96;18.19
64668;BME280;51077;42.716;23.344;2023-03-07T10:37:27;94486.53;;;31.96;18.06
64668;BME280;51077;42.716;23.344;2023-03-07T10:39:55;94481.84;;;32.11;18.05
64668;BME280;51077;42.716;23.344;2023-03-07T10:42:23;94479.25;;;32.23;17.94
64668;BME280;51077;42.716;23.344;2023-03-07T10:44:50;94486.69;;;32.39;18.08
64668;BME280;51077;42.716;23.344;2023-03-07T10:47:26;94469.31;;;32.59;17.75
64668;BME280;51077;42.716;23.344;2023-03-07T10:49:56;94463.88;;;32.71;17.59
64668;BME280;51077;42.716;23.344;2023-03-07T10:52:46;94450.09;;;32.95;17.37
64668;BME280;51077;42.716;23.344;2023-03-07T10:55:33;94454.75;;;33.19;16.86
64668;BME280;51077;42.716;23.344;2023-03-07T11:00:45;94454.63;;;33.13;16.66
64668;BME280;51077;42.716;23.344;2023-03-07T11:05:51;94432.69;;;32.77;16.69
64668;BME280;51077;42.716;23.344;2023-03-07T11:08:35;94429.06;;;32.34;16.62
64668;BME280;51077;42.716;23.344;2023-03-07T11:11:02;94425.69;;;32.06;16.16
64668;BME280;51077;42.716;23.344;2023-03-07T11:13:29;94420.63;;;31.36;16.62
64668;BME280;51077;42.716;23.344;2023-03-07T11:16:20;94410.09;;;30.82;16.53
64668;BME280;51077;42.716;23.344;2023-03-07T11:18:47;94402.25;;;30.24;16.96
64668;BME280;51077;42.716;23.344;2023-03-07T11:21:33;94405.53;;;30.15;17.10
64668;BME280;51077;42.716;23.344;2023-03-07T11:24:19;94396.09;;;30.32;17.31
64668;BME280;51077;42.716;23.344;2023-03-07T11:26:52;94391.19;;;30.63;16.64
64668;BME280;51077;42.716;23.344;2023-03-07T11:29:18;94389.97;;;30.98;17.10
64668;BME280;51077;42.716;23.344;2023-03-07T11:34:40;94387.75;;;31.91;16.51
64668;BME280;51077;42.716;23.344;2023-03-07T11:37:28;94381.00;;;32.44;16.22
64668;BME280;51077;42.716;23.344;2023-03-07T11:42:33;94384.66;;;32.91;14.74
64668;BME280;51077;42.716;23.344;2023-03-07T11:45:28;94380.78;;;33.17;14.86
64668;BME280;51077;42.716;23.344;2023-03-07T11:48:23;94362.66;;;32.94;14.98
64668;BME280;51077;42.716;23.344;2023-03-07T11:50:54;94365.94;;;32.78;15.03
64668;BME280;51077;42.716;23.344;2023-03-07T11:53:41;94363.50;;;32.20;14.97
64668;BME280;51077;42.716;23.344;2023-03-07T11:56:23;94352.19;;;31.51;15.71
64668;BME280;51077;42.716;23.344;2023-03-07T12:04:02;94349.47;;;29.57;16.47
64668;BME280;51077;42.716;23.344;2023-03-07T12:06:51;94356.75;;;29.42;16.10
64668;BME280;51077;42.716;23.344;2023-03-07T12:12:09;94340.19;;;28.63;16.34
64668;BME280;51077;42.716;23.344;2023-03-07T12:15:07;94333.69;;;28.36;16.57
64668;BME280;51077;42.716;23.344;2023-03-07T12:18:02;94337.56;;;28.47;16.57
64668;BME280;51077;42.716;23.344;2023-03-07T12:23:23;94325.59;;;28.92;15.57
64668;BME280;51077;42.716;23.344;2023-03-07T12:25:58;94316.84;;;29.06;15.38
64668;BME280;51077;42.716;23.344;2023-03-07T12:28:31;94333.50;;;29.20;15.19
64668;BME280;51077;42.716;23.344;2023-03-07T12:36:45;94326.97;;;29.61;14.96
64668;BME280;51077;42.716;23.344;2023-03-07T12:45:02;94315.34;;;29.03;15.35
64668;BME280;51077;42.716;23.344;2023-03-07T12:50:32;94297.78;;;28.83;15.51
64668;BME280;51077;42.716;23.344;2023-03-07T12:53:20;94314.16;;;28.88;15.33
64668;BME280;51077;42.716;23.344;2023-03-07T13:01:13;94298.13;;;28.95;15.17
64668;BME280;51077;42.716;23.344;2023-03-07T13:06:45;94300.50;;;29.02;15.17
64668;BME280;51077;42.716;23.344;2023-03-07T13:09:25;94304.00;;;29.01;15.00
64668;BME280;51077;42.716;23.344;2023-03-07T13:15:44;94295.00;;;28.85;14.84
64668;BME280;51077;42.716;23.344;2023-03-07T13:17:56;94298.81;;;28.71;14.91
64668;BME280;51077;42.716;23.344;2023-03-07T13:23:11;94294.31;;;28.40;15.10
64668;BME280;51077;42.716;23.344;2023-03-07T13:25:54;94293.84;;;28.26;15.32
64668;BME280;51077;42.716;23.344;2023-03-07T13:28:34;94304.00;;;28.13;15.20
64668;BME280;51077;42.716;23.344;2023-03-07T13:33:42;94305.94;;;27.87;15.12
64668;BME280;51077;42.716;23.344;2023-03-07T13:36:37;94301.13;;;27.71;15.25
64668;BME280;51077;42.716;23.344;2023-03-07T13:39:26;94298.81;;;27.46;15.67
64668;BME280;51077;42.716;23.344;2023-03-07T13:41:49;94315.28;;;27.14;15.59
64668;BME280;51077;42.716;23.344;2023-03-07T13:44:39;94305.88;;;26.71;15.99
64668;BME280;51077;42.716;23.344;2023-03-07T13:47:39;94295.97;;;26.17;16.55
64668;BME280;51077;42.716;23.344;2023-03-07T13:51:10;94305.25;;;25.70;17.01
64668;BME280;51077;42.716;23.344;2023-03-07T13:53:18;94299.03;;;25.24;17.38
64668;BME280;51077;42.716;23.344;2023-03-07T13:58:46;94293.38;;;24.92;17.75
64668;BME280;51077;42.716;23.344;2023-03-07T14:01:22;94300.97;;;24.90;17.93
64668;BME280;51077;42.716;23.344;2023-03-07T14:06:20;94312.00;;;24.86;18.09
64668;BME280;51077;42.716;23.344;2023-03-07T14:08:48;94306.78;;;24.78;18.22
64668;BME280;51077;42.716;23.344;2023-03-07T14:13:50;94299.13;;;24.35;18.54
64668;BME280;51077;42.716;23.344;2023-03-07T14:17:10;94307.03;;;24.25;18.65
64668;BME280;51077;42.716;23.344;2023-03-07T14:19:52;94303.94;;;24.19;18.63
64668;BME280;51077;42.716;23.344;2023-03-07T14:28:02;94311.72;;;24.20;18.88
64668;BME280;51077;42.716;23.344;2023-03-07T14:30:31;94300.44;;;24.18;18.69
64668;BME280;51077;42.716;23.344;2023-03-07T14:32:58;94298.97;;;24.17;18.64
64668;BME280;51077;42.716;23.344;2023-03-07T14:38:07;94305.44;;;24.06;18.97
64668;BME280;51077;42.716;23.344;2023-03-07T14:52:13;94312.69;;;23.01;20.01
64668;BME280;51077;42.716;23.344;2023-03-07T14:54:43;94321.03;;;22.87;20.17